createdAt,value
2017-02-13T00:00:15.788Z,78.13
2017-02-13T00:01:29.584Z,77.59
2017-02-13T00:02:43.356Z,77.5
2017-02-13T00:03:57.651Z,77.03
2017-02-13T00:05:11.570Z,77.12
2017-02-13T00:06:25.396Z,77.18
2017-02-13T00:07:39.367Z,77.22
2017-02-13T00:08:53.709Z,77.27
2017-02-13T00:10:07.686Z,77.37
2017-02-13T00:11:24.072Z,77.31
2017-02-13T00:12:38.195Z,77.27
2017-02-13T00:13:52.350Z,76.99
2017-02-13T00:15:05.955Z,77.18
2017-02-13T00:16:20.292Z,77.37
2017-02-13T00:17:34.116Z,77.37
2017-02-13T00:18:48.188Z,77.08
2017-02-13T00:20:01.729Z,77.27
2017-02-13T00:21:16.446Z,77.18
2017-02-13T00:22:30.919Z,77.65
2017-02-13T00:23:44.767Z,77.46
2017-02-13T00:24:59.116Z,77.56
2017-02-13T00:26:12.837Z,77.75
2017-02-13T00:27:26.761Z,77.75
2017-02-13T00:28:40.834Z,77.37
2017-02-13T00:29:54.850Z,77.37
2017-02-13T00:31:08.990Z,77.37
2017-02-13T00:32:22.694Z,77.46
2017-02-13T00:33:36.969Z,77.65
2017-02-13T00:34:50.841Z,77.65
2017-02-13T00:36:04.675Z,77.37
2017-02-13T00:37:21.303Z,77.75
2017-02-13T00:38:38.447Z,77.56
2017-02-13T00:39:55.237Z,77.37
2017-02-13T00:41:12.098Z,77.46
2017-02-13T00:42:29.711Z,77.75
2017-02-13T00:43:45.141Z,77.65
2017-02-13T00:44:58.765Z,77.37
2017-02-13T00:46:12.844Z,77.08
2017-02-13T00:47:27.081Z,77.18
2017-02-13T00:48:41.284Z,77.22
2017-02-13T00:49:54.887Z,77.18
2017-02-13T00:51:09.454Z,77.22
2017-02-13T00:52:23.100Z,77.37
2017-02-13T00:53:37.059Z,77.4
2017-02-13T00:54:51.252Z,77.37
2017-02-13T00:56:04.992Z,77.37
2017-02-13T00:57:18.927Z,77.56
2017-02-13T00:58:32.889Z,77.94
2017-02-13T01:02:44.150Z,77.75
2017-02-13T01:03:59.220Z,77.84
2017-02-13T01:05:13.468Z,77.65
2017-02-13T01:06:27.138Z,77.08
2017-02-13T01:07:41.035Z,77.56
2017-02-13T01:08:54.843Z,77.65
2017-02-13T01:10:08.466Z,77.65
2017-02-13T01:11:22.809Z,77.46
2017-02-13T01:12:36.440Z,77.84
2017-02-13T01:13:50.147Z,78.41
2017-02-13T01:15:04.299Z,77.75
2017-02-13T01:16:17.836Z,78.03
2017-02-13T01:17:32.396Z,78.03
2017-02-13T01:18:45.865Z,78.13
2017-02-13T01:19:59.657Z,77.56
2017-02-13T01:21:13.700Z,77.46
2017-02-13T01:22:27.473Z,77.56
2017-02-13T01:23:41.599Z,77.65
2017-02-13T01:24:55.570Z,77.46
2017-02-13T01:26:09.619Z,77.94
2017-02-13T01:27:23.291Z,78.31
2017-02-13T01:28:37.176Z,78.13
2017-02-13T01:29:53.427Z,78.31
2017-02-13T01:31:07.295Z,78.03
2017-02-13T01:32:21.222Z,77.56
2017-02-13T01:33:34.906Z,77.46
2017-02-13T01:34:48.715Z,77.37
2017-02-13T01:36:02.453Z,77.65
2017-02-13T01:37:16.356Z,78.22
2017-02-13T01:38:32.878Z,78.22
2017-02-13T01:39:46.720Z,78.31
2017-02-13T01:41:00.395Z,78.22
2017-02-13T01:42:14.170Z,78.22
2017-02-13T01:43:27.930Z,77.65
2017-02-13T01:44:41.992Z,78.5
2017-02-13T01:45:55.761Z,78.13
2017-02-13T01:47:09.788Z,78.31
2017-02-13T01:48:24.168Z,78.22
2017-02-13T01:49:37.719Z,78.13
2017-02-13T01:50:51.553Z,77.75
2017-02-13T01:52:05.361Z,77.37
2017-02-13T01:53:19.780Z,77.37
2017-02-13T01:54:33.848Z,77.46
2017-02-13T01:55:47.644Z,77.37
2017-02-13T01:57:01.604Z,77.46
2017-02-13T01:58:15.679Z,77.65
2017-02-13T01:59:29.539Z,77.46
2017-02-13T02:00:43.649Z,77.37
2017-02-13T02:01:57.106Z,77.37
2017-02-13T02:03:11.172Z,77.65
2017-02-13T02:04:25.424Z,77.46
2017-02-13T02:05:39.148Z,77.37
2017-02-13T02:06:53.109Z,78.22
2017-02-13T02:08:06.890Z,78.69
2017-02-13T02:09:20.394Z,78.13
2017-02-13T02:10:34.407Z,78.41
2017-02-13T02:11:48.203Z,78.03
2017-02-13T02:13:02.583Z,77.37
2017-02-13T02:14:16.037Z,77.65
2017-02-13T02:15:29.793Z,77.65
2017-02-13T02:16:43.594Z,77.46
2017-02-13T02:18:12.156Z,77.46
2017-02-13T02:19:26.185Z,77.46
2017-02-13T02:20:40.066Z,77.37
2017-02-13T02:21:53.719Z,77.56
2017-02-13T02:23:13.887Z,77.27
2017-02-13T02:24:37.065Z,77.75
2017-02-13T02:26:00.120Z,77.56
2017-02-13T02:27:22.317Z,77.94
2017-02-13T02:28:44.717Z,77.75
2017-02-13T02:30:05.738Z,78.22
2017-02-13T02:31:28.096Z,78.03
2017-02-13T02:32:51.347Z,78.31
2017-02-13T02:34:12.400Z,78.41
2017-02-13T02:35:33.660Z,78.31
2017-02-13T02:37:00.716Z,78.03
2017-02-13T02:38:19.988Z,78.5
2017-02-13T02:39:36.264Z,77.94
2017-02-13T02:40:49.941Z,77.75
2017-02-13T02:42:03.746Z,77.65
2017-02-13T02:43:18.056Z,78.13
2017-02-13T02:44:31.975Z,77.46
2017-02-13T02:45:45.984Z,77.65
2017-02-13T02:46:59.991Z,77.65
2017-02-13T02:48:15.949Z,77.37
2017-02-13T02:49:29.761Z,78.03
2017-02-13T02:50:43.522Z,77.84
2017-02-13T02:51:57.789Z,77.94
2017-02-13T02:53:11.649Z,77.94
2017-02-13T02:54:25.516Z,78.5
2017-02-13T02:55:39.616Z,78.03
2017-02-13T02:56:53.649Z,77.56
2017-02-13T02:59:37.262Z,77.37
2017-02-13T03:00:51.061Z,77.65
2017-02-13T03:02:04.767Z,77.37
2017-02-13T03:03:18.594Z,77.65
2017-02-13T03:04:47.180Z,77.37
2017-02-13T03:06:01.506Z,78.13
2017-02-13T03:07:15.467Z,77.56
2017-02-13T03:08:29.295Z,77.56
2017-02-13T03:09:43.092Z,77.37
2017-02-13T03:10:56.905Z,77.46
2017-02-13T03:12:11.197Z,77.18
2017-02-13T03:13:25.566Z,77.65
2017-02-13T03:14:39.279Z,77.37
2017-02-13T03:15:53.025Z,77.65
2017-02-13T03:17:06.585Z,77.37
2017-02-13T03:18:20.824Z,77.65
2017-02-13T03:19:34.637Z,77.27
2017-02-13T03:20:48.321Z,77.65
2017-02-13T03:22:01.827Z,77.65
2017-02-13T03:23:15.912Z,77.46
2017-02-13T03:24:29.884Z,77.65
2017-02-13T03:25:43.752Z,77.46
2017-02-13T03:26:57.372Z,78.03
2017-02-13T03:28:11.400Z,78.03
2017-02-13T03:29:24.944Z,77.56
2017-02-13T03:30:39.117Z,77.75
2017-02-13T03:31:52.765Z,77.94
2017-02-13T03:33:06.488Z,77.75
2017-02-13T03:34:20.161Z,78.41
2017-02-13T03:35:34.305Z,78.03
2017-02-13T03:36:48.346Z,77.94
2017-02-13T03:38:01.965Z,78.22
2017-02-13T03:39:15.502Z,77.94
2017-02-13T03:40:29.584Z,77.56
2017-02-13T03:41:43.258Z,77.65
2017-02-13T03:42:57.354Z,77.65
2017-02-13T03:44:11.288Z,77.27
2017-02-13T03:45:25.611Z,77.27
2017-02-13T03:46:39.452Z,77.65
2017-02-13T03:47:53.282Z,77.75
2017-02-13T03:49:07.487Z,77.56
2017-02-13T03:50:21.418Z,77.56
2017-02-13T03:51:35.067Z,77.18
2017-02-13T03:52:49.003Z,77.56
2017-02-13T03:54:02.582Z,78.13
2017-02-13T03:55:16.478Z,77.46
2017-02-13T03:56:29.943Z,77.65
2017-02-13T03:57:43.897Z,77.08
2017-02-13T03:58:57.599Z,77.65
2017-02-13T04:00:11.509Z,77.65
2017-02-13T04:01:25.255Z,77.46
2017-02-13T04:02:39.346Z,77.56
2017-02-13T04:03:53.145Z,77.65
2017-02-13T04:06:38.215Z,77.56
2017-02-13T04:07:51.783Z,77.84
2017-02-13T04:09:05.736Z,77.94
2017-02-13T04:10:19.515Z,77.18
2017-02-13T04:11:33.414Z,77.37
2017-02-13T04:12:46.851Z,77.65
2017-02-13T04:14:00.947Z,77.27
2017-02-13T04:15:14.384Z,77.27
2017-02-13T04:16:28.370Z,77.56
2017-02-13T04:17:41.896Z,77.37
2017-02-13T04:18:55.655Z,77.46
2017-02-13T04:20:09.504Z,77.65
2017-02-13T04:21:23.249Z,77.27
2017-02-13T04:22:37.020Z,77.65
2017-02-13T04:23:50.669Z,77.65
2017-02-13T04:25:04.416Z,77.65
2017-02-13T04:26:19.051Z,77.75
2017-02-13T04:27:32.669Z,77.65
2017-02-13T04:28:46.531Z,77.65
2017-02-13T04:30:00.603Z,77.46
2017-02-13T04:31:14.445Z,77.65
2017-02-13T04:32:28.501Z,77.46
2017-02-13T04:33:42.273Z,77.08
2017-02-13T04:34:56.163Z,77.18
2017-02-13T04:36:10.025Z,77.94
2017-02-13T04:37:24.059Z,77.46
2017-02-13T04:38:38.074Z,77.08
2017-02-13T04:39:52.375Z,77.46
2017-02-13T04:41:07.002Z,77.37
2017-02-13T04:42:21.103Z,77.46
2017-02-13T04:43:35.254Z,77.65
2017-02-13T04:44:49.184Z,77.37
2017-02-13T04:46:02.996Z,77.46
2017-02-13T04:47:16.480Z,77.37
2017-02-13T04:48:30.745Z,77.65
2017-02-13T04:49:44.511Z,77.46
2017-02-13T04:50:58.708Z,77.65
2017-02-13T04:52:12.435Z,77.56
2017-02-13T04:53:26.223Z,78.22
2017-02-13T04:54:40.129Z,77.46
2017-02-13T04:55:53.950Z,77.46
2017-02-13T04:57:07.897Z,77.46
2017-02-13T04:58:22.080Z,77.65
2017-02-13T04:59:35.849Z,77.65
2017-02-13T05:00:50.241Z,77.56
2017-02-13T05:02:03.972Z,77.46
2017-02-13T05:03:18.699Z,77.27
2017-02-13T05:04:33.027Z,77.27
2017-02-13T05:05:46.676Z,77.27
2017-02-13T05:07:00.451Z,77.27
2017-02-13T05:08:14.257Z,77.37
2017-02-13T05:09:28.260Z,77.08
2017-02-13T05:10:42.152Z,77.27
2017-02-13T05:11:55.841Z,77.46
2017-02-13T05:13:09.921Z,77.56
2017-02-13T05:14:24.142Z,77.27
2017-02-13T05:15:38.209Z,77.46
2017-02-13T05:16:51.730Z,77.65
2017-02-13T05:18:05.443Z,77.65
2017-02-13T05:19:19.180Z,77.56
2017-02-13T05:20:32.962Z,76.7
2017-02-13T05:21:49.539Z,76.99
2017-02-13T05:23:03.300Z,76.7
2017-02-13T05:24:17.180Z,76.42
2017-02-13T05:25:31.028Z,76.89
2017-02-13T05:26:45.166Z,76.8
2017-02-13T05:27:58.967Z,76.61
2017-02-13T05:29:12.731Z,76.42
2017-02-13T05:30:26.185Z,76.36
2017-02-13T05:31:40.121Z,76.36
2017-02-13T05:32:54.048Z,75.98
2017-02-13T05:34:08.060Z,79.21
2017-02-13T05:35:21.834Z,82.14
2017-02-13T05:36:35.531Z,79.06
2017-02-13T05:37:49.740Z,75.45
2017-02-13T05:39:03.455Z,76.87
2017-02-13T05:40:17.320Z,73.12
2017-02-13T05:41:31.648Z,72.61
2017-02-13T05:42:45.230Z,72.89
2017-02-13T05:43:59.201Z,73.9
2017-02-13T05:45:12.816Z,73.99
2017-02-13T05:46:27.268Z,74.56
2017-02-13T05:47:40.972Z,74.85
2017-02-13T05:48:54.767Z,75.32
2017-02-13T05:50:08.858Z,74.85
2017-02-13T05:51:22.612Z,75.04
2017-02-13T05:52:36.737Z,75.13
2017-02-13T05:53:50.663Z,75.6
2017-02-13T05:55:04.831Z,75.42
2017-02-13T05:56:30.920Z,75.42
2017-02-13T05:57:44.720Z,75.51
2017-02-13T05:58:58.800Z,75.6
2017-02-13T06:00:41.300Z,75.32
2017-02-13T06:01:55.126Z,75.32
2017-02-13T06:03:08.848Z,75.89
2017-02-13T06:04:23.026Z,75.89
2017-02-13T06:05:36.543Z,75.32
2017-02-13T06:06:51.177Z,75.98
2017-02-13T06:08:04.689Z,75.51
2017-02-13T06:09:18.619Z,75.89
2017-02-13T06:10:32.264Z,75.7
2017-02-13T06:11:46.721Z,75.23
2017-02-13T06:13:01.162Z,75.42
2017-02-13T06:14:15.020Z,75.89
2017-02-13T06:15:28.982Z,75.79
2017-02-13T06:16:42.788Z,76.17
2017-02-13T06:17:57.250Z,75.89
2017-02-13T06:19:11.210Z,76.08
2017-02-13T06:20:26.264Z,75.79
2017-02-13T06:21:39.959Z,75.98
2017-02-13T06:22:53.554Z,76.46
2017-02-13T06:24:07.995Z,75.98
2017-02-13T06:25:21.981Z,75.98
2017-02-13T06:26:36.594Z,76.36
2017-02-13T06:27:50.223Z,76.17
2017-02-13T06:29:03.824Z,75.98
2017-02-13T06:30:17.597Z,75.98
2017-02-13T06:31:31.706Z,76.17
2017-02-13T06:32:45.770Z,75.79
2017-02-13T06:33:59.735Z,76.36
2017-02-13T06:35:13.749Z,75.79
2017-02-13T06:36:27.582Z,75.42
2017-02-13T06:37:41.739Z,75.51
2017-02-13T06:38:57.750Z,75.89
2017-02-13T06:40:12.423Z,75.42
2017-02-13T06:41:26.533Z,75.04
2017-02-13T06:42:40.204Z,75.13
2017-02-13T06:43:54.836Z,75.42
2017-02-13T06:45:08.374Z,75.13
2017-02-13T06:46:22.262Z,75.04
2017-02-13T06:47:35.914Z,75.13
2017-02-13T06:48:50.285Z,75.13
2017-02-13T06:50:19.365Z,75.13
2017-02-13T06:51:33.277Z,75.51
2017-02-13T06:52:46.781Z,74.56
2017-02-13T06:54:00.954Z,75.32
2017-02-13T06:55:15.009Z,74.75
2017-02-13T06:56:29.126Z,74.66
2017-02-13T06:57:42.994Z,74.75
2017-02-13T06:58:57.028Z,74.66
2017-02-13T07:00:10.703Z,74.95
2017-02-13T07:01:24.901Z,74.85
2017-02-13T07:02:38.390Z,74.66
2017-02-13T07:03:52.002Z,74.66
2017-02-13T07:05:05.716Z,75.13
2017-02-13T07:06:19.948Z,74.95
2017-02-13T07:07:33.919Z,74.47
2017-02-13T07:08:47.629Z,74.66
2017-02-13T07:10:01.273Z,74.37
2017-02-13T07:11:14.956Z,74.66
2017-02-13T07:12:29.037Z,74.56
2017-02-13T07:13:43.409Z,74.28
2017-02-13T07:14:57.282Z,74.09
2017-02-13T07:16:11.233Z,74.28
2017-02-13T07:17:24.987Z,73.9
2017-02-13T07:18:38.972Z,74.37
2017-02-13T07:19:52.793Z,74.28
2017-02-13T07:21:06.711Z,73.8
2017-02-13T07:22:20.532Z,74.09
2017-02-13T07:23:34.768Z,73.99
2017-02-13T07:24:48.760Z,73.61
2017-02-13T07:26:02.754Z,73.52
2017-02-13T07:27:16.495Z,73.52
2017-02-13T07:28:30.543Z,74.09
2017-02-13T07:29:44.056Z,73.8
2017-02-13T07:30:58.476Z,74.37
2017-02-13T07:32:12.470Z,73.52
2017-02-13T07:33:26.516Z,73.8
2017-02-13T07:34:40.173Z,73.71
2017-02-13T07:35:53.974Z,73.61
2017-02-13T07:37:07.643Z,73.52
2017-02-13T07:38:22.034Z,73.61
2017-02-13T07:39:36.565Z,73.9
2017-02-13T07:40:50.230Z,73.52
2017-02-13T07:42:03.829Z,73.9
2017-02-13T07:43:17.512Z,73.61
2017-02-13T07:44:32.073Z,73.52
2017-02-13T07:45:45.830Z,73.43
2017-02-13T07:46:59.533Z,73.71
2017-02-13T07:48:13.376Z,73.71
2017-02-13T07:49:27.070Z,73.8
2017-02-13T07:50:41.539Z,73.33
2017-02-13T07:51:55.256Z,72.96
2017-02-13T07:53:09.013Z,72.86
2017-02-13T07:54:22.645Z,73.33
2017-02-13T07:55:38.648Z,72.77
2017-02-13T07:57:07.446Z,72.77
2017-02-13T07:58:20.957Z,72
2017-02-13T07:59:34.955Z,72
2017-02-13T08:00:48.761Z,72.29
2017-02-13T08:02:02.971Z,71.91
2017-02-13T08:03:16.835Z,71.72
2017-02-13T08:04:30.501Z,72.1
2017-02-13T08:05:44.404Z,72.23
2017-02-13T08:06:58.402Z,71.81
2017-02-13T08:08:13.171Z,71.81
2017-02-13T08:09:27.507Z,71.95
2017-02-13T08:10:41.233Z,71.25
2017-02-13T08:11:55.183Z,71.38
2017-02-13T08:13:08.896Z,71.76
2017-02-13T08:14:23.544Z,71
2017-02-13T08:15:37.560Z,71
2017-02-13T08:16:51.266Z,71.57
2017-02-13T08:18:04.878Z,72.23
2017-02-13T08:19:18.701Z,72.99
2017-02-13T08:20:32.461Z,70.24
2017-02-13T08:21:46.578Z,69.77
2017-02-13T08:23:00.313Z,70.05
2017-02-13T08:24:14.171Z,69.86
2017-02-13T08:25:28.121Z,69.77
2017-02-13T08:26:42.081Z,70.15
2017-02-13T08:27:56.168Z,69.77
2017-02-13T08:29:10.027Z,70.05
2017-02-13T08:30:23.833Z,69.86
2017-02-13T08:31:37.926Z,69.96
2017-02-13T08:32:51.745Z,70.05
2017-02-13T08:34:05.696Z,69.86
2017-02-13T08:35:19.532Z,69.86
2017-02-13T08:36:33.279Z,70.05
2017-02-13T08:37:46.996Z,69.86
2017-02-13T08:39:00.938Z,69.96
2017-02-13T08:40:14.898Z,69.96
2017-02-13T08:41:28.851Z,69.1
2017-02-13T08:42:42.439Z,69.96
2017-02-13T08:43:56.265Z,69.29
2017-02-13T08:45:10.183Z,69.38
2017-02-13T08:46:24.178Z,69.29
2017-02-13T08:47:37.936Z,69.29
2017-02-13T08:48:52.024Z,68.82
2017-02-13T08:50:05.800Z,68.44
2017-02-13T08:51:19.422Z,68.73
2017-02-13T08:52:33.262Z,69.1
2017-02-13T08:53:47.216Z,68.63
2017-02-13T08:55:00.824Z,68.44
2017-02-13T08:56:14.455Z,68.25
2017-02-13T08:57:27.922Z,68.25
2017-02-13T08:58:42.048Z,68.25
2017-02-13T08:59:56.046Z,67.81
2017-02-13T09:01:10.168Z,67.62
2017-02-13T09:02:24.180Z,67.62
2017-02-13T09:03:37.842Z,67.62
2017-02-13T09:04:52.078Z,67.81
2017-02-13T09:06:06.075Z,67.52
2017-02-13T09:07:19.924Z,67.81
2017-02-13T09:08:33.651Z,67.9
2017-02-13T09:09:47.312Z,67.71
2017-02-13T09:11:01.787Z,67.43
2017-02-13T09:12:17.979Z,67.43
2017-02-13T09:13:31.851Z,67.52
2017-02-13T09:14:45.811Z,67.33
2017-02-13T09:16:15.010Z,67.05
2017-02-13T09:17:43.803Z,67.14
2017-02-13T09:18:57.773Z,66.58
2017-02-13T09:20:11.648Z,66.67
2017-02-13T09:21:25.372Z,66.86
2017-02-13T09:22:39.461Z,66.77
2017-02-13T09:23:53.500Z,66.2
2017-02-13T09:25:07.887Z,66.1
2017-02-13T09:26:21.546Z,66.01
2017-02-13T09:27:35.412Z,65.72
2017-02-13T09:28:49.215Z,65.72
2017-02-13T09:30:04.393Z,65.63
2017-02-13T09:31:17.927Z,65.91
2017-02-13T09:32:32.677Z,66.86
2017-02-13T09:33:46.286Z,67.05
2017-02-13T09:35:00.517Z,66.96
2017-02-13T09:36:14.539Z,66.58
2017-02-13T09:37:28.497Z,66.86
2017-02-13T09:38:42.075Z,66.58
2017-02-13T09:39:56.705Z,66.96
2017-02-13T09:41:10.490Z,67.43
2017-02-13T09:42:24.765Z,67.14
2017-02-13T09:43:38.473Z,66.77
2017-02-13T09:44:52.332Z,66.96
2017-02-13T09:46:05.949Z,67.05
2017-02-13T09:47:20.000Z,66.96
2017-02-13T09:48:34.237Z,66.58
2017-02-13T09:49:48.398Z,65.82
2017-02-13T09:51:01.965Z,65.82
2017-02-13T09:52:15.660Z,65.91
2017-02-13T09:53:29.336Z,65.44
2017-02-13T09:54:43.732Z,65.72
2017-02-13T09:55:57.542Z,65.63
2017-02-13T09:57:11.634Z,65.44
2017-02-13T09:58:25.147Z,65.63
2017-02-13T09:59:39.190Z,64.97
2017-02-13T10:00:53.210Z,65.37
2017-02-13T10:02:06.854Z,65.19
2017-02-13T10:03:20.727Z,65.06
2017-02-13T10:04:34.834Z,65.72
2017-02-13T10:05:48.411Z,66.01
2017-02-13T10:07:02.825Z,65.72
2017-02-13T10:08:17.202Z,65.44
2017-02-13T10:09:30.891Z,65.63
2017-02-13T10:10:44.400Z,66.2
2017-02-13T10:11:58.221Z,66.1
2017-02-13T10:13:12.241Z,65.82
2017-02-13T10:14:25.974Z,65.72
2017-02-13T10:15:39.997Z,65.82
2017-02-13T10:16:54.353Z,66.01
2017-02-13T10:18:07.910Z,66.01
2017-02-13T10:19:37.529Z,65.72
2017-02-13T10:20:51.183Z,65.34
2017-02-13T10:22:04.996Z,64.71
2017-02-13T10:23:18.759Z,65
2017-02-13T10:24:32.714Z,64.9
2017-02-13T10:25:46.884Z,64.24
2017-02-13T10:27:01.013Z,64.24
2017-02-13T10:28:14.885Z,63.95
2017-02-13T10:29:30.813Z,64.43
2017-02-13T10:30:44.463Z,64.14
2017-02-13T10:31:59.330Z,63.95
2017-02-13T10:33:12.923Z,64.24
2017-02-13T10:34:26.882Z,64.43
2017-02-13T10:35:40.873Z,63.86
2017-02-13T10:36:54.550Z,63.86
2017-02-13T10:38:08.749Z,63.86
2017-02-13T10:39:22.968Z,63.86
2017-02-13T10:40:36.636Z,63.67
2017-02-13T10:41:50.367Z,63.2
2017-02-13T10:43:04.156Z,63.57
2017-02-13T10:44:18.254Z,63.95
2017-02-13T10:45:32.080Z,63.01
2017-02-13T10:46:46.106Z,63.01
2017-02-13T10:47:59.778Z,63.2
2017-02-13T10:49:13.711Z,63.57
2017-02-13T10:50:28.057Z,63.29
2017-02-13T10:51:42.546Z,63.76
2017-02-13T10:52:56.608Z,63.1
2017-02-13T10:54:10.932Z,62.82
2017-02-13T10:55:24.711Z,62.66
2017-02-13T10:56:38.846Z,62.75
2017-02-13T10:57:52.577Z,62.85
2017-02-13T10:59:06.403Z,62.27
2017-02-13T11:00:20.275Z,62.46
2017-02-13T11:01:34.177Z,62.27
2017-02-13T11:02:48.042Z,62.37
2017-02-13T11:04:01.723Z,62.18
2017-02-13T11:05:15.974Z,61.99
2017-02-13T11:06:29.809Z,62.08
2017-02-13T11:07:43.684Z,61.23
2017-02-13T11:08:57.642Z,60.95
2017-02-13T11:10:11.365Z,61.23
2017-02-13T11:11:25.311Z,61.23
2017-02-13T11:12:38.945Z,61.04
2017-02-13T11:13:52.971Z,60.57
2017-02-13T11:15:06.989Z,60.95
2017-02-13T11:16:21.234Z,60.69
2017-02-13T11:17:35.657Z,60.41
2017-02-13T11:18:50.562Z,60.22
2017-02-13T11:20:04.354Z,60.13
2017-02-13T11:21:42.760Z,60.31
2017-02-13T11:22:57.068Z,60.22
2017-02-13T11:24:10.857Z,60.22
2017-02-13T11:25:24.814Z,60.13
2017-02-13T11:26:38.814Z,60.13
2017-02-13T11:27:52.952Z,60.13
2017-02-13T11:29:06.607Z,59.84
2017-02-13T11:30:20.522Z,59.74
2017-02-13T11:31:34.297Z,59.93
2017-02-13T11:32:47.966Z,59.65
2017-02-13T11:34:01.957Z,59.65
2017-02-13T11:35:30.840Z,58.8
2017-02-13T11:36:45.169Z,58.89
2017-02-13T11:37:59.064Z,59.36
2017-02-13T11:39:13.247Z,59.36
2017-02-13T11:40:27.314Z,58.8
2017-02-13T11:41:41.074Z,58.41
2017-02-13T11:42:55.218Z,58.32
2017-02-13T11:44:09.641Z,58.32
2017-02-13T11:45:23.569Z,58.41
2017-02-13T11:46:39.502Z,58.03
2017-02-13T11:47:53.390Z,58.03
2017-02-13T11:49:07.181Z,57.68
2017-02-13T11:50:21.253Z,57.37
2017-02-13T11:51:35.959Z,57.28
2017-02-13T11:52:49.493Z,57.37
2017-02-13T11:54:03.877Z,56.89
2017-02-13T11:55:17.502Z,57.02
2017-02-13T11:56:41.266Z,57.11
2017-02-13T11:57:55.499Z,57.11
2017-02-13T11:59:09.604Z,56.83
2017-02-13T12:00:23.412Z,56.54
2017-02-13T12:01:37.422Z,56.45
2017-02-13T12:02:51.347Z,56.16
2017-02-13T12:04:05.720Z,56.54
2017-02-13T12:05:19.960Z,56.45
2017-02-13T12:06:33.785Z,56.45
2017-02-13T12:07:48.306Z,56.54
2017-02-13T12:09:01.800Z,55.78
2017-02-13T12:10:16.033Z,55.97
2017-02-13T12:11:30.225Z,55.97
2017-02-13T12:12:44.380Z,55.4
2017-02-13T12:13:58.516Z,55.4
2017-02-13T12:15:12.705Z,55.4
2017-02-13T12:16:26.854Z,55.5
2017-02-13T12:17:41.680Z,55.21
2017-02-13T12:18:56.055Z,55.4
2017-02-13T12:20:09.721Z,55.11
2017-02-13T12:21:38.576Z,55.11
2017-02-13T12:22:52.646Z,54.93
2017-02-13T12:24:06.771Z,55.4
2017-02-13T12:25:20.822Z,55.21
2017-02-13T12:26:34.669Z,55.3
2017-02-13T12:27:49.013Z,54.93
2017-02-13T12:29:03.009Z,54.83
2017-02-13T12:30:17.212Z,54.38
2017-02-13T12:31:52.361Z,54.38
2017-02-13T12:33:06.107Z,54.38
2017-02-13T12:34:20.344Z,54.38
2017-02-13T12:35:34.515Z,54.67
2017-02-13T12:36:48.359Z,53.72
2017-02-13T12:38:02.294Z,53.91
2017-02-13T12:39:16.167Z,54.38
2017-02-13T12:40:30.873Z,54
2017-02-13T12:41:45.019Z,54.1
2017-02-13T12:42:59.034Z,53.63
2017-02-13T12:45:36.241Z,53.53
2017-02-13T12:46:51.102Z,53.63
2017-02-13T12:48:21.167Z,53.15
2017-02-13T12:49:34.732Z,53.05
2017-02-13T12:50:49.576Z,52.89
2017-02-13T12:52:03.195Z,52.7
2017-02-13T12:53:17.552Z,52.7
2017-02-13T12:54:31.227Z,52.03
2017-02-13T12:55:46.356Z,51.75
2017-02-13T12:57:00.331Z,51.93
2017-02-13T12:58:14.573Z,51.93
2017-02-13T12:59:28.560Z,51.75
2017-02-13T13:00:42.546Z,51.93
2017-02-13T13:01:57.864Z,51.65
2017-02-13T13:03:11.699Z,51.46
2017-02-13T13:04:25.603Z,51.75
2017-02-13T13:05:41.736Z,51.27
2017-02-13T13:06:55.214Z,51.56
2017-02-13T13:08:09.573Z,51.18
2017-02-13T13:09:24.040Z,51.27
2017-02-13T13:10:38.488Z,50.89
2017-02-13T13:11:52.374Z,50.89
2017-02-13T13:13:06.085Z,50.51
2017-02-13T13:14:20.383Z,50.7
2017-02-13T13:15:34.218Z,50.13
2017-02-13T13:16:50.272Z,50.23
2017-02-13T13:18:03.894Z,50.23
2017-02-13T13:19:17.987Z,50.32
2017-02-13T13:20:31.844Z,50.06
2017-02-13T13:21:46.146Z,49.3
2017-02-13T13:23:00.308Z,49.3
2017-02-13T13:24:14.749Z,49.65
2017-02-13T13:25:29.199Z,49.56
2017-02-13T13:26:43.245Z,48.99
2017-02-13T13:27:58.140Z,49.2
2017-02-13T13:29:11.921Z,49.11
2017-02-13T13:30:25.845Z,48.73
2017-02-13T13:31:40.062Z,48.82
2017-02-13T13:32:54.069Z,48.92
2017-02-13T13:34:08.370Z,49.01
2017-02-13T13:35:21.932Z,48.54
2017-02-13T13:36:36.048Z,47.97
2017-02-13T13:37:50.611Z,48.16
2017-02-13T13:39:05.303Z,47.78
2017-02-13T13:40:18.979Z,47.39
2017-02-13T13:41:32.689Z,47.49
2017-02-13T13:42:46.765Z,47.58
2017-02-13T13:44:01.098Z,47.3
2017-02-13T13:45:15.019Z,47.39
2017-02-13T13:46:29.031Z,47.49
2017-02-13T13:47:42.688Z,47.3
2017-02-13T13:48:56.768Z,47.2
2017-02-13T13:50:10.292Z,47.3
2017-02-13T13:51:24.281Z,47.49
2017-02-13T13:52:38.213Z,46.73
2017-02-13T13:53:51.976Z,46.92
2017-02-13T13:55:05.610Z,46.92
2017-02-13T13:56:19.673Z,47.02
2017-02-13T13:57:33.564Z,46.92
2017-02-13T13:58:47.345Z,46.92
2017-02-13T14:00:01.621Z,47.02
2017-02-13T14:01:15.456Z,46.83
2017-02-13T14:02:29.157Z,46.73
2017-02-13T14:03:43.161Z,46.28
2017-02-13T14:04:56.907Z,46.44
2017-02-13T14:06:11.302Z,46.37
2017-02-13T14:07:25.126Z,46.63
2017-02-13T14:08:39.305Z,46.73
2017-02-13T14:09:53.571Z,46.28
2017-02-13T14:11:07.416Z,46.06
2017-02-13T14:12:21.285Z,45.8
2017-02-13T14:13:35.079Z,45.8
2017-02-13T14:14:49.277Z,45.89
2017-02-13T14:16:03.971Z,45.61
2017-02-13T14:17:17.616Z,45.7
2017-02-13T14:18:31.483Z,45.8
2017-02-13T14:19:45.717Z,45.8
2017-02-13T14:20:59.552Z,45.7
2017-02-13T14:22:15.966Z,45.7
2017-02-13T14:23:29.711Z,45.61
2017-02-13T14:24:43.590Z,45.61
2017-02-13T14:25:57.456Z,44.66
2017-02-13T14:27:11.137Z,44.56
2017-02-13T14:28:25.412Z,44.46
2017-02-13T14:29:39.555Z,44.18
2017-02-13T14:30:53.215Z,44.46
2017-02-13T14:32:07.275Z,44.46
2017-02-13T14:33:21.626Z,44.27
2017-02-13T14:34:35.907Z,44.46
2017-02-13T14:35:49.542Z,44.37
2017-02-13T14:37:03.321Z,44.46
2017-02-13T14:38:16.981Z,44.46
2017-02-13T14:39:31.329Z,44.37
2017-02-13T14:40:45.596Z,44.37
2017-02-13T14:41:59.903Z,44.27
2017-02-13T14:43:13.745Z,44.46
2017-02-13T14:44:37.172Z,44.18
2017-02-13T14:45:50.969Z,44.37
2017-02-13T14:47:05.257Z,44.18
2017-02-13T14:48:19.968Z,44.18
2017-02-13T14:49:33.589Z,43.61
2017-02-13T14:50:47.453Z,43.71
2017-02-13T14:52:01.747Z,43.71
2017-02-13T14:53:15.680Z,43.61
2017-02-13T14:54:29.688Z,43.71
2017-02-13T14:55:43.848Z,43.51
2017-02-13T14:56:58.088Z,43.51
2017-02-13T14:58:12.607Z,43.61
2017-02-13T14:59:26.642Z,43.8
2017-02-13T15:00:40.351Z,43.8
2017-02-13T15:01:54.000Z,43.71
2017-02-13T15:03:07.885Z,43.61
2017-02-13T15:04:21.644Z,44.09
2017-02-13T15:07:04.810Z,43.63
2017-02-13T15:08:18.921Z,43.73
2017-02-13T15:09:32.820Z,43.35
2017-02-13T15:10:46.730Z,43.63
2017-02-13T15:12:01.121Z,43.63
2017-02-13T15:13:14.749Z,43.54
2017-02-13T15:14:47.792Z,43.73
2017-02-13T15:16:01.709Z,43.54
2017-02-13T15:17:15.732Z,43.51
2017-02-13T15:18:29.545Z,43.99
2017-02-13T15:19:43.524Z,43.91
2017-02-13T15:20:57.426Z,43.63
2017-02-13T15:22:11.637Z,43.54
2017-02-13T15:23:26.079Z,43.73
2017-02-13T15:24:39.968Z,43.8
2017-02-13T15:25:54.212Z,43.63
2017-02-13T15:27:08.010Z,43.73
2017-02-13T15:28:22.460Z,44.11
2017-02-13T15:29:36.218Z,44.18
2017-02-13T15:30:50.264Z,43.91
2017-02-13T15:32:03.930Z,44.2
2017-02-13T15:33:18.296Z,44.68
2017-02-13T15:34:32.447Z,43.82
2017-02-13T15:35:46.144Z,44.3
2017-02-13T15:37:00.474Z,44.49
2017-02-13T15:38:14.293Z,44.39
2017-02-13T15:39:30.424Z,44.49
2017-02-13T15:40:44.320Z,44.39
2017-02-13T15:41:58.237Z,44.59
2017-02-13T15:43:12.159Z,44.59
2017-02-13T15:44:27.042Z,43.61
2017-02-13T15:45:42.015Z,43.51
2017-02-13T15:46:56.257Z,43.8
2017-02-13T15:48:09.906Z,44.11
2017-02-13T15:49:25.468Z,43.71
2017-02-13T15:50:38.957Z,43.61
2017-02-13T15:51:53.024Z,43.51
2017-02-13T15:53:07.764Z,43.71
2017-02-13T15:54:22.267Z,43.51
2017-02-13T15:55:36.510Z,43.51
2017-02-13T15:56:50.827Z,43.61
2017-02-13T15:58:04.373Z,43.71
2017-02-13T15:59:19.192Z,43.51
2017-02-13T16:00:32.808Z,43.61
2017-02-13T16:01:46.917Z,43.71
2017-02-13T16:03:00.622Z,43.61
2017-02-13T16:04:14.372Z,43.71
2017-02-13T16:05:28.266Z,43.71
2017-02-13T16:06:42.617Z,43.61
2017-02-13T16:07:56.896Z,43.71
2017-02-13T16:09:10.798Z,43.99
2017-02-13T16:10:26.126Z,43.9
2017-02-13T16:11:40.058Z,43.51